Time;durP1;ratioP1;P1;durP2;ratioP2;P2;SDS_P1;SDS_P2;PMS_P1;PMS_P2;Temp;Humidity;BMP_temperature;BMP_pressure;BME280_temperature;BME280_humidity;BME280_pressure;Samples;Min_cycle;Max_cycle;Signal;HPM_P1;HPM_P2
2023/03/06 17:59:36;;;;;;;22.80;10.10;;;;;;;7.96;51.45;97618.09;4522799;31;218694;-84
2023/03/06 18:02:02;;;;;;;23.45;11.48;;;;;;;7.96;51.45;97618.09;4500395;31;20127;-84
2023/03/06 18:04:27;;;;;;;22.15;10.18;;;;;;;7.94;51.24;97619.97;4507885;31;20092;-83
2023/03/06 18:06:53;;;;;;;23.50;10.10;;;;;;;8.17;50.60;97622.00;4506589;31;20136;-86
2023/03/06 18:09:18;;;;;;;22.00;9.48;;;;;;;8.16;50.78;97622.94;4507206;31;20111;-82
2023/03/06 18:11:44;;;;;;;26.12;10.40;;;;;;;8.07;50.94;97627.00;4505820;31;20413;-83
2023/03/06 18:14:09;;;;;;;23.50;9.55;;;;;;;8.08;50.79;97622.59;4491859;31;20092;-81
2023/03/06 18:16:36;;;;;;;23.05;10.43;;;;;;;8.00;50.97;97627.47;4506626;31;20452;-86
2023/03/06 18:19:01;;;;;;;24.50;9.48;;;;;;;8.03;50.90;97633.34;4514657;31;20095;-82
2023/03/06 18:21:27;;;;;;;25.37;10.90;;;;;;;8.03;51.01;97625.47;4514936;31;20333;-80
2023/03/06 18:23:52;;;;;;;23.20;10.32;;;;;;;7.91;51.26;97630.66;4512768;31;20467;-79
2023/03/06 18:26:20;;;;;;;26.12;10.23;;;;;;;8.06;50.83;97621.84;4492458;31;20120;-80
2023/03/06 18:28:48;;;;;;;24.17;9.82;;;;;;;7.81;51.48;97622.53;4496929;31;20382;-78
2023/03/06 18:31:26;;;;;;;24.70;10.50;;;;;;;7.90;51.25;97619.34;4491371;31;20164;-78
2023/03/06 18:33:56;;;;;;;28.62;10.20;;;;;;;7.94;51.19;97620.84;4506406;31;20084;-79
2023/03/06 18:36:23;;;;;;;22.40;9.98;;;;;;;7.78;51.58;97622.72;4492909;31;20083;-77
2023/03/06 18:38:49;;;;;;;24.33;9.48;;;;;;;7.97;51.19;97617.16;4501583;31;20099;-79
2023/03/06 18:41:17;;;;;;;25.75;9.77;;;;;;;7.93;51.33;97621.75;4495829;32;20364;-78
2023/03/06 18:43:42;;;;;;;26.23;10.13;;;;;;;7.66;52.19;97625.16;4502250;31;20451;-79
2023/03/06 18:46:08;;;;;;;24.48;10.15;;;;;;;7.83;51.98;97620.66;4508054;31;20079;-77
2023/03/06 18:48:34;;;;;;;26.85;11.00;;;;;;;7.85;52.26;97629.28;4501574;31;20142;-80
2023/03/06 18:51:06;;;;;;;25.67;11.07;;;;;;;7.84;52.29;97630.19;4495153;31;20107;-81
2023/03/06 18:53:32;;;;;;;23.95;9.98;;;;;;;7.98;52.36;97626.72;4488909;31;20589;-75
2023/03/06 18:55:57;;;;;;;27.30;11.35;;;;;;;7.85;53.25;97630.09;4504064;31;20088;-79
2023/03/06 18:58:23;;;;;;;24.27;10.63;;;;;;;7.96;53.09;97623.34;4498455;31;20444;-81
2023/03/06 19:00:48;;;;;;;25.23;10.73;;;;;;;8.02;53.31;97615.94;4498428;32;20076;-81
2023/03/06 19:03:14;;;;;;;26.10;11.20;;;;;;;8.19;53.39;97601.75;4500399;31;20502;-79
2023/03/06 19:05:41;;;;;;;26.10;11.12;;;;;;;8.20;53.59;97600.81;4490383;31;20080;-77
2023/03/06 19:08:08;;;;;;;27.80;12.17;;;;;;;8.26;53.84;97596.94;4507792;31;20088;-79
2023/03/06 19:10:38;;;;;;;28.35;11.82;;;;;;;8.21;54.48;97606.91;4493665;31;20104;-79
2023/03/06 19:13:04;;;;;;;28.10;11.68;;;;;;;8.25;54.61;97596.12;4485489;31;20204;-78
2023/03/06 19:15:30;;;;;;;24.33;10.88;;;;;;;8.30;54.24;97594.97;4480461;31;20072;-79
2023/03/06 19:17:55;;;;;;;27.48;12.07;;;;;;;8.34;53.87;97593.84;4480530;31;20105;-79
2023/03/06 19:20:22;;;;;;;26.37;11.05;;;;;;;8.39;54.05;97597.84;4492558;31;20120;-80
2023/03/06 19:22:47;;;;;;;26.33;12.15;;;;;;;8.40;53.98;97590.81;4493503;31;20098;-80
2023/03/06 19:25:13;;;;;;;26.37;11.73;;;;;;;8.35;54.28;97606.88;4494224;31;20092;-79
2023/03/06 19:27:38;;;;;;;29.58;11.80;;;;;;;8.31;54.34;97610.63;4487945;31;20165;-75
2023/03/06 19:30:05;;;;;;;26.45;12.10;;;;;;;8.27;53.94;97617.84;4500250;31;20080;-76
2023/03/06 19:32:31;;;;;;;31.12;12.13;;;;;;;8.16;53.95;97612.44;4495973;31;20102;-82
2023/03/06 19:34:58;;;;;;;25.65;12.13;;;;;;;8.17;53.84;97608.91;4494042;31;20459;-79
2023/03/06 19:37:26;;;;;;;28.05;11.57;;;;;;;8.19;53.97;97608.78;4494957;31;20127;-82
2023/03/06 19:39:52;;;;;;;26.67;10.50;;;;;;;8.16;53.92;97606.38;4501908;31;20147;-80
2023/03/06 19:42:18;;;;;;;27.83;11.88;;;;;;;8.20;53.92;97607.84;4480004;31;20283;-83
2023/03/06 19:44:43;;;;;;;29.50;11.95;;;;;;;8.12;54.15;97600.47;4498452;31;20321;-80
2023/03/06 19:47:08;;;;;;;24.77;10.90;;;;;;;8.22;53.80;97603.34;4489081;31;20096;-81
2023/03/06 19:49:34;;;;;;;24.73;11.40;;;;;;;8.11;54.01;97616.28;4499064;31;20092;-82
2023/03/06 19:51:59;;;;;;;25.95;12.05;;;;;;;8.14;54.05;97613.50;4486315;31;20140;-79
2023/03/06 19:54:25;;;;;;;24.10;11.32;;;;;;;8.18;54.19;97594.81;4486536;32;20700;-83
2023/03/06 19:56:51;;;;;;;26.80;11.45;;;;;;;8.20;54.23;97592.94;4484483;32;20129;-80
2023/03/06 19:59:16;;;;;;;26.58;10.98;;;;;;;8.20;54.32;97589.47;4486466;31;20092;-78
2023/03/06 20:01:42;;;;;;;25.85;11.48;;;;;;;8.15;54.44;97583.69;4485974;32;20415;-78
2023/03/06 20:04:07;;;;;;;29.02;12.13;;;;;;;8.06;54.49;97587.75;4486768;31;20136;-78
2023/03/06 20:06:35;;;;;;;26.30;12.30;;;;;;;8.12;54.43;97591.75;4486040;31;20444;-78
2023/03/06 20:09:03;;;;;;;28.75;11.88;;;;;;;8.13;54.46;97593.44;4486473;31;20092;-78
2023/03/06 20:11:29;;;;;;;25.42;11.12;;;;;;;8.10;54.37;97591.03;4486335;31;20093;-78
2023/03/06 20:13:56;;;;;;;27.33;11.80;;;;;;;8.14;54.23;97580.22;4485541;32;20084;-78
2023/03/06 20:16:21;;;;;;;27.40;10.97;;;;;;;8.17;54.01;97582.66;4485595;32;20204;-78
2023/03/06 20:18:47;;;;;;;26.75;12.43;;;;;;;8.18;54.00;97584.31;4487103;31;20483;-78
2023/03/06 20:21:13;;;;;;;24.95;11.38;;;;;;;8.10;54.07;97581.34;4486449;31;20366;-78
2023/03/06 20:23:38;;;;;;;26.87;11.63;;;;;;;8.13;54.01;97575.94;4486151;32;20080;-78
2023/03/06 20:26:10;;;;;;;27.35;11.77;;;;;;;8.14;53.90;97587.25;4486140;32;20131;-78
2023/03/06 20:28:36;;;;;;;25.37;11.32;;;;;;;8.13;53.84;97586.41;4473348;32;20120;-78
2023/03/06 20:31:19;;;;;;;27.45;12.77;;;;;;;8.14;53.83;97585.47;4487283;31;20088;-78
2023/03/06 20:33:47;;;;;;;24.02;10.70;;;;;;;8.16;53.72;97591.44;4487428;31;20081;-79
2023/03/06 20:36:18;;;;;;;27.70;11.57;;;;;;;8.16;53.60;97603.75;4487294;31;20101;-78
2023/03/06 20:38:45;;;;;;;28.10;11.68;;;;;;;8.13;53.48;97601.28;4487315;31;20092;-79
2023/03/06 20:41:22;;;;;;;26.75;11.48;;;;;;;8.16;53.27;97607.19;4486147;32;20554;-78
2023/03/06 20:43:48;;;;;;;27.73;12.23;;;;;;;8.15;53.22;97602.03;4487324;31;20080;-78
2023/03/06 20:46:14;;;;;;;30.70;12.10;;;;;;;8.13;53.25;97604.78;4485998;32;20105;-78
2023/03/06 20:48:40;;;;;;;28.42;12.15;;;;;;;8.10;53.36;97604.12;4487258;31;20088;-78
2023/03/06 20:51:19;;;;;;;25.48;11.10;;;;;;;7.92;53.92;97612.22;4486039;32;20155;-78
2023/03/06 20:53:49;;;;;;;31.25;11.90;;;;;;;7.96;53.91;97607.59;4485884;32;20182;-78
2023/03/06 20:56:17;;;;;;;25.40;10.45;;;;;;;7.93;54.15;97613.06;4486094;32;20152;-78
2023/03/06 20:58:43;;;;;;;26.58;12.13;;;;;;;8.03;54.03;97607.13;4486865;31;20104;-78
2023/03/06 21:01:16;;;;;;;26.60;10.88;;;;;;;7.98;54.20;97611.00;4487050;32;20102;-78
2023/03/06 21:03:42;;;;;;;27.35;11.25;;;;;;;7.99;54.36;97610.03;4485956;32;20133;-78
2023/03/06 21:06:08;;;;;;;24.50;11.80;;;;;;;8.02;54.31;97610.69;4486241;32;20109;-78
2023/03/06 21:08:33;;;;;;;25.42;11.23;;;;;;;8.03;54.38;97595.78;4487355;31;20432;-78
2023/03/06 21:10:58;;;;;;;28.23;12.25;;;;;;;8.10;54.33;97599.72;4486085;32;20115;-78
2023/03/06 21:13:24;;;;;;;27.50;11.75;;;;;;;8.03;54.23;97596.62;4487328;31;20087;-78
2023/03/06 21:15:49;;;;;;;26.40;12.30;;;;;;;7.97;54.37;97597.03;4485961;32;20382;-78
2023/03/06 21:18:15;;;;;;;28.02;11.80;;;;;;;8.08;54.17;97598.97;4487191;31;20092;-78
2023/03/06 21:20:40;;;;;;;27.37;12.02;;;;;;;7.99;54.40;97603.00;4487022;31;20108;-78
2023/03/06 21:23:06;;;;;;;27.45;12.43;;;;;;;8.06;54.40;97606.09;4486067;32;20072;-78
2023/03/06 21:25:32;;;;;;;26.73;11.95;;;;;;;8.08;54.43;97601.59;4485721;32;20096;-78
2023/03/06 21:27:58;;;;;;;27.60;11.70;;;;;;;8.13;54.40;97606.53;4486816;31;20458;-78
2023/03/06 21:30:25;;;;;;;27.95;12.32;;;;;;;8.14;54.42;97603.00;4485657;32;20500;-78
2023/03/06 21:32:51;;;;;;;26.35;12.40;;;;;;;8.22;54.13;97604.19;4486490;31;20450;-78
2023/03/06 21:35:17;;;;;;;28.42;11.65;;;;;;;8.06;54.23;97603.47;4486764;31;20465;-78
2023/03/06 21:37:44;;;;;;;29.55;12.40;;;;;;;8.15;54.16;97605.53;4486722;31;20097;-78
2023/03/06 21:40:10;;;;;;;29.63;12.32;;;;;;;8.17;54.17;97606.28;4486715;31;20147;-78
2023/03/06 21:42:36;;;;;;;26.45;12.40;;;;;;;8.05;54.15;97604.41;4486831;31;20084;-78
2023/03/06 21:45:03;;;;;;;28.90;12.48;;;;;;;8.18;53.83;97609.72;4486621;31;20341;-78
2023/03/06 21:47:30;;;;;;;24.90;11.75;;;;;;;8.14;53.93;97606.44;4485559;32;20109;-78
2023/03/06 21:49:55;;;;;;;27.17;11.75;;;;;;;8.14;53.99;97603.84;4486642;31;20080;-78
2023/03/06 21:52:20;;;;;;;25.58;12.02;;;;;;;8.16;53.93;97603.75;4486547;31;20168;-78
2023/03/06 21:54:48;;;;;;;28.98;12.98;;;;;;;8.11;53.81;97603.19;4486444;31;20112;-78
2023/03/06 21:57:13;;;;;;;29.80;13.03;;;;;;;8.13;53.83;97596.06;4486527;31;20119;-78
2023/03/06 21:59:39;;;;;;;26.65;12.32;;;;;;;8.03;53.96;97595.78;4486331;32;20427;-78
2023/03/06 22:02:04;;;;;;;30.62;12.27;;;;;;;8.06;54.04;97596.44;4486470;31;20093;-78
2023/03/06 22:04:29;;;;;;;27.25;12.57;;;;;;;8.00;54.11;97596.84;4486098;31;20088;-78
2023/03/06 22:06:55;;;;;;;29.10;13.52;;;;;;;8.04;54.12;97594.88;4486264;31;20115;-78
2023/03/06 22:09:20;;;;;;;31.50;13.10;;;;;;;8.07;54.01;97603.38;4485070;32;20124;-78
2023/03/06 22:11:46;;;;;;;30.95;12.77;;;;;;;7.96;54.20;97602.34;4486334;31;20091;-78
2023/03/06 22:14:13;;;;;;;29.50;13.00;;;;;;;7.83;54.38;97594.44;4485111;32;20108;-78
2023/03/06 22:16:39;;;;;;;27.60;13.02;;;;;;;7.96;54.16;97599.72;4486239;31;20101;-78
2023/03/06 22:19:04;;;;;;;28.95;13.30;;;;;;;8.04;54.01;97592.25;4484993;32;20084;-78
2023/03/06 22:21:29;;;;;;;32.53;13.25;;;;;;;8.06;53.92;97596.44;4486120;31;20112;-78
2023/03/06 22:23:56;;;;;;;29.87;13.30;;;;;;;8.10;53.92;97596.25;4486049;31;20092;-78
2023/03/06 22:26:22;;;;;;;28.62;13.35;;;;;;;8.07;53.95;97597.28;4484979;32;20130;-78
2023/03/06 22:28:47;;;;;;;29.37;13.57;;;;;;;8.12;53.87;97604.88;4486364;31;20115;-78
2023/03/06 22:31:15;;;;;;;35.03;13.70;;;;;;;8.07;53.83;97594.66;4485931;31;20128;-78
2023/03/06 22:33:41;;;;;;;;;;;;;;;8.10;53.74;97597.09;4472266;32;20127;-78
2023/03/06 22:36:09;;;;;;;32.35;12.68;;;;;;;8.10;53.53;97591.84;4486304;31;19972;-78
2023/03/06 22:38:37;;;;;;;31.67;13.93;;;;;;;8.02;53.20;97591.50;4486171;31;20110;-78
2023/03/06 22:41:04;;;;;;;29.12;12.77;;;;;;;7.99;53.26;97589.06;4484981;32;20089;-78
2023/03/06 22:43:30;;;;;;;32.75;13.88;;;;;;;7.96;53.43;97589.25;4486216;31;20076;-78
2023/03/06 22:46:00;;;;;;;30.45;12.65;;;;;;;8.03;53.35;97586.13;4487994;31;20111;-78
2023/03/06 22:48:26;;;;;;;29.90;13.35;;;;;;;7.88;53.69;97593.22;4487174;32;20388;-78
2023/03/06 22:50:51;;;;;;;31.67;14.27;;;;;;;8.00;53.65;97590.75;4488269;31;20106;-78
2023/03/06 22:53:16;;;;;;;32.17;14.35;;;;;;;7.83;53.91;97590.03;4488211;31;20120;-78
2023/03/06 22:55:42;;;;;;;32.10;13.98;;;;;;;8.05;53.33;97593.91;4488182;31;20095;-78
2023/03/06 22:58:07;;;;;;;30.20;13.80;;;;;;;8.08;53.34;97589.31;4488003;31;20076;-78
2023/03/06 23:00:33;;;;;;;31.27;14.05;;;;;;;8.13;53.40;97596.91;4488254;32;20094;-78
2023/03/06 23:02:58;;;;;;;32.97;14.23;;;;;;;8.14;53.38;97590.72;4486931;32;20392;-78
2023/03/06 23:05:23;;;;;;;30.23;13.77;;;;;;;8.10;53.51;97591.03;4488257;31;20119;-79
2023/03/06 23:07:50;;;;;;;33.95;13.57;;;;;;;8.21;53.21;97588.56;4488176;31;20106;-79
2023/03/06 23:10:17;;;;;;;27.67;12.95;;;;;;;8.25;53.01;97593.50;4488093;31;20408;-78
2023/03/06 23:12:43;;;;;;;32.97;14.80;;;;;;;8.31;52.66;97596.69;4487859;31;20097;-78
2023/03/06 23:15:09;;;;;;;32.08;15.23;;;;;;;8.35;52.20;97591.13;4487760;31;20084;-78
2023/03/06 23:17:34;;;;;;;33.05;14.55;;;;;;;8.35;51.93;97598.16;4487904;31;20107;-78
2023/03/06 23:20:00;;;;;;;31.40;14.60;;;;;;;8.35;51.94;97596.38;4486601;32;20101;-78
2023/03/06 23:22:25;;;;;;;32.45;13.73;;;;;;;8.33;52.14;97600.03;4487891;31;20126;-78
2023/03/06 23:24:50;;;;;;;30.85;14.68;;;;;;;8.30;52.07;97595.81;4487770;31;20423;-78
2023/03/06 23:27:16;;;;;;;33.78;14.77;;;;;;;8.33;52.03;97600.87;4486568;32;20348;-78
2023/03/06 23:29:42;;;;;;;33.13;15.18;;;;;;;8.34;52.07;97588.59;4487703;32;20321;-78
2023/03/06 23:32:07;;;;;;;32.75;14.20;;;;;;;8.32;52.24;97590.47;4487696;31;20161;-78
2023/03/06 23:34:32;;;;;;;32.35;13.60;;;;;;;8.32;52.34;97591.31;4487649;32;20107;-78
2023/03/06 23:36:58;;;;;;;32.05;14.23;;;;;;;8.35;52.40;97598.16;4486455;32;20106;-78
2023/03/06 23:39:23;;;;;;;35.13;15.75;;;;;;;8.31;52.37;97597.50;4487531;31;20420;-78
2023/03/06 23:41:49;;;;;;;30.58;13.13;;;;;;;8.10;53.00;97599.72;4487632;31;20084;-78
2023/03/06 23:44:14;;;;;;;32.35;14.27;;;;;;;8.11;53.06;97595.31;4487760;31;20133;-78
2023/03/06 23:46:39;;;;;;;32.35;13.90;;;;;;;8.18;52.78;97586.94;4487566;31;20133;-78
2023/03/06 23:49:06;;;;;;;32.45;15.40;;;;;;;8.18;52.75;97591.38;4487699;31;20080;-78
2023/03/06 23:51:31;;;;;;;32.58;13.98;;;;;;;8.02;52.09;97602.84;4487563;31;20149;-78
2023/03/06 23:53:58;;;;;;;31.15;14.10;;;;;;;7.93;52.27;97594.69;4487671;31;20092;-78
2023/03/06 23:56:25;;;;;;;35.78;14.65;;;;;;;7.96;52.25;97599.72;4486349;32;20119;-78
2023/03/06 23:58:51;;;;;;;32.40;15.18;;;;;;;7.85;52.47;97595.19;4486026;32;20159;-78
